Time;durP1;ratioP1;P1;durP2;ratioP2;P2;SDS_P1;SDS_P2;PMS_P1;PMS_P2;Temp;Humidity;BMP_temperature;BMP_pressure;BME280_temperature;BME280_humidity;BME280_pressure;Samples;Min_cycle;Max_cycle;Signal;HPM_P1;HPM_P2
2024/01/29 00:02:32;;;;;;;1.85;0.90;;;-1.30;99.90;;;;;;20754127;28;20037;-44
2024/01/29 00:12:34;;;;;;;1.13;0.60;;;-1.40;99.90;;;;;;20753018;28;20130;-43
2024/01/29 00:22:36;;;;;;;1.70;0.70;;;-1.40;99.90;;;;;;20748818;28;20519;-45
2024/01/29 00:32:40;;;;;;;1.90;0.68;;;-1.10;99.90;;;;;;20749835;28;21192;-45
2024/01/29 00:42:42;;;;;;;0.85;0.40;;;-1.20;99.50;;;;;;20750092;28;20037;-43
2024/01/29 00:52:43;;;;;;;1.17;0.70;;;-1.20;99.90;;;;;;20751933;28;20045;-45
2024/01/29 01:02:45;;;;;;;1.45;0.60;;;-1.40;99.90;;;;;;20749624;28;20098;-44
2024/01/29 01:12:47;;;;;;;1.63;1.00;;;-1.50;99.90;;;;;;20749759;28;21084;-44
2024/01/29 01:22:49;;;;;;;1.40;0.60;;;-1.50;99.90;;;;;;20749654;28;20071;-44
2024/01/29 01:32:50;;;;;;;2.05;0.90;;;-1.50;99.90;;;;;;20748265;28;20087;-45
2024/01/29 01:42:52;;;;;;;1.40;0.80;;;-1.50;99.90;;;;;;20730700;28;20045;-45
2024/01/29 01:52:54;;;;;;;4.47;0.90;;;-1.60;99.90;;;;;;20763123;28;20041;-43
2024/01/29 02:02:56;;;;;;;3.90;0.95;;;-1.60;99.90;;;;;;20764025;28;20037;-44
2024/01/29 02:12:57;;;;;;;1.40;0.73;;;-1.40;99.90;;;;;;20761871;28;20453;-44
2024/01/29 02:22:59;;;;;;;1.73;0.75;;;-1.30;99.90;;;;;;20759403;28;20122;-48
2024/01/29 02:33:01;;;;;;;1.30;0.88;;;-1.30;99.90;;;;;;20758849;28;20194;-45
2024/01/29 02:43:03;;;;;;;2.13;0.70;;;-1.20;99.90;;;;;;20760617;28;20041;-43
2024/01/29 02:53:04;;;;;;;2.58;1.10;;;-1.20;99.90;;;;;;20757745;28;21192;-43
2024/01/29 03:03:06;;;;;;;1.92;0.90;;;-1.30;99.90;;;;;;20756851;28;20037;-44
2024/01/29 03:13:08;;;;;;;3.42;0.85;;;-1.20;99.90;;;;;;20757111;28;20111;-43
2024/01/29 03:23:10;;;;;;;1.83;1.00;;;-1.30;99.90;;;;;;20754295;28;20049;-45
2024/01/29 03:33:12;;;;;;;1.73;0.70;;;-1.50;99.90;;;;;;20755007;28;20044;-43
2024/01/29 03:43:13;;;;;;;0.80;0.50;;;-1.50;99.90;;;;;;20755590;28;20037;-43
2024/01/29 03:53:15;;;;;;;2.15;1.00;;;-1.50;99.90;;;;;;20752667;28;20106;-43
2024/01/29 04:03:17;;;;;;;1.38;0.63;;;-1.50;99.90;;;;;;20749923;28;20405;-43
2024/01/29 04:13:18;;;;;;;2.25;0.75;;;-1.80;99.90;;;;;;20749996;28;21269;-44
2024/01/29 04:23:20;;;;;;;2.08;0.80;;;-1.70;99.90;;;;;;20751046;28;20056;-45
2024/01/29 04:33:22;;;;;;;2.22;0.77;;;-1.60;99.90;;;;;;20751604;28;20045;-46
2024/01/29 04:43:27;;;;;;;1.17;0.60;;;-1.60;99.90;;;;;;20749013;28;21391;-45
2024/01/29 04:53:28;;;;;;;1.85;0.80;;;-1.60;99.90;;;;;;20751448;28;20391;-45
2024/01/29 05:03:30;;;;;;;1.65;0.60;;;-1.50;99.90;;;;;;20749324;28;20045;-43
2024/01/29 05:13:32;;;;;;;3.08;0.80;;;-1.60;99.90;;;;;;20751904;28;20045;-44
2024/01/29 05:23:34;;;;;;;1.58;0.63;;;-1.60;99.90;;;;;;20760059;28;20060;-44
2024/01/29 05:33:35;;;;;;;2.25;0.63;;;-1.60;99.90;;;;;;20764744;28;20103;-44
2024/01/29 05:43:37;;;;;;;1.30;0.60;;;-1.60;99.90;;;;;;20763155;28;20040;-43
2024/01/29 05:53:39;;;;;;;1.30;0.63;;;-1.60;99.90;;;;;;20762490;28;20087;-47
2024/01/29 06:03:40;;;;;;;1.73;0.68;;;-1.50;99.90;;;;;;20763277;28;20044;-44
2024/01/29 06:13:45;;;;;;;2.78;0.70;;;-1.40;99.90;;;;;;20761040;28;20914;-43
2024/01/29 06:23:47;;;;;;;3.22;0.70;;;-1.50;99.90;;;;;;20758827;28;20057;-45
2024/01/29 06:33:52;;;;;;;1.42;0.70;;;-1.60;99.90;;;;;;20753025;28;20045;-42
2024/01/29 06:43:55;;;;;;;1.35;0.68;;;-1.60;99.90;;;;;;20752837;28;20029;-43
2024/01/29 06:53:58;;;;;;;0.82;0.60;;;-1.50;99.90;;;;;;20756388;28;20414;-45
2024/01/29 07:04:00;;;;;;;1.58;0.60;;;-1.30;99.90;;;;;;20753015;28;20071;-44
2024/01/29 07:14:02;;;;;;;2.90;0.75;;;-1.20;99.90;;;;;;20752127;28;20037;-44
2024/01/29 07:24:04;;;;;;;1.02;0.50;;;-1.00;99.90;;;;;;20750966;28;20139;-44
2024/01/29 07:34:05;;;;;;;2.05;0.70;;;-1.10;99.90;;;;;;20745046;28;20041;-46
2024/01/29 07:44:07;;;;;;;1.27;0.50;;;-0.80;99.90;;;;;;20747720;28;20079;-44
2024/01/29 07:54:09;;;;;;;1.70;0.70;;;-0.40;99.90;;;;;;20745679;28;20063;-44
2024/01/29 08:04:11;;;;;;;1.75;0.70;;;0.40;99.90;;;;;;20748501;28;21211;-44
2024/01/29 08:14:14;;;;;;;1.00;0.68;;;1.40;97.90;;;;;;20747429;28;20178;-45
2024/01/29 08:24:16;;;;;;;1.88;0.60;;;2.20;96.30;;;;;;20749779;28;20049;-45
2024/01/29 08:34:17;;;;;;;31.08;1.77;;;3.30;95.50;;;;;;20745544;28;20041;-45
2024/01/29 08:44:19;;;;;;;1.55;0.77;;;4.40;94.00;;;;;;20746780;28;20067;-45
2024/01/29 08:54:21;;;;;;;1.63;0.80;;;5.30;92.10;;;;;;20742832;28;20049;-46
2024/01/29 09:04:23;;;;;;;1.77;0.80;;;6.10;90.30;;;;;;20744025;28;21105;-45
2024/01/29 09:14:27;;;;;;;2.00;0.90;;;6.80;87.10;;;;;;20747009;28;20056;-46
2024/01/29 09:24:28;;;;;;;1.70;0.93;;;7.20;85.10;;;;;;20744541;28;20522;-46
2024/01/29 09:34:30;;;;;;;1.48;0.70;;;7.70;84.30;;;;;;20745585;28;20041;-46
2024/01/29 09:44:38;;;;;;;1.83;0.70;;;8.20;83.10;;;;;;20719051;28;20111;-46
2024/01/29 09:54:41;;;;;;;1.50;0.80;;;8.40;80.90;;;;;;20737847;28;20491;-46
2024/01/29 10:04:43;;;;;;;1.58;0.90;;;8.60;79.60;;;;;;20735306;28;20065;-46
2024/01/29 10:14:46;;;;;;;2.03;0.80;;;8.90;79.00;;;;;;20750723;28;20060;-46
2024/01/29 10:25:02;;;;;;;2.53;0.95;;;9.30;78.70;;;;;;20750844;28;20430;-46
2024/01/29 10:35:05;;;;;;;1.70;0.70;;;9.80;77.30;;;;;;20757172;28;20041;-45
2024/01/29 10:45:11;;;;;;;2.40;0.90;;;10.00;76.50;;;;;;20758089;28;20045;-46
2024/01/29 10:55:16;;;;;;;1.30;0.63;;;10.00;76.10;;;;;;20754183;28;20099;-45
2024/01/29 11:05:18;;;;;;;1.65;0.70;;;10.10;75.00;;;;;;20750517;28;20037;-46
2024/01/29 11:15:20;;;;;;;1.67;0.88;;;10.60;74.50;;;;;;20751650;28;20045;-47
2024/01/29 11:25:22;;;;;;;1.30;0.80;;;10.70;74.40;;;;;;20748232;28;20037;-46
2024/01/29 11:35:26;;;;;;;1.27;0.60;;;10.60;73.40;;;;;;20750589;28;20082;-47
2024/01/29 11:45:29;;;;;;;1.38;0.77;;;10.80;71.30;;;;;;20749037;28;20114;-46
2024/01/29 11:55:31;;;;;;;1.48;0.80;;;10.90;70.70;;;;;;20749580;28;20671;-47
2024/01/29 12:05:33;;;;;;;2.92;0.85;;;10.90;70.90;;;;;;20748951;28;20103;-46
2024/01/29 12:15:35;;;;;;;1.50;1.05;;;10.90;71.40;;;;;;20747447;28;20064;-45
2024/01/29 12:25:41;;;;;;;2.63;1.27;;;10.90;71.00;;;;;;20746882;28;20560;-45
2024/01/29 12:35:44;;;;;;;1.70;1.33;;;10.70;72.40;;;;;;20741056;28;20082;-46
2024/01/29 12:45:46;;;;;;;3.10;1.58;;;10.60;72.90;;;;;;20744895;28;20094;-47
2024/01/29 12:55:47;;;;;;;2.65;1.70;;;10.50;75.10;;;;;;20746569;28;21191;-45
2024/01/29 13:05:52;;;;;;;3.33;1.95;;;10.40;75.10;;;;;;20736248;28;20045;-47
2024/01/29 13:15:54;;;;;;;2.97;2.00;;;10.40;75.70;;;;;;20746704;28;20089;-45
2024/01/29 13:25:56;;;;;;;3.30;2.13;;;10.00;76.00;;;;;;20747422;28;20037;-46
2024/01/29 13:35:59;;;;;;;3.42;2.22;;;9.40;78.10;;;;;;20745675;28;20036;-47
2024/01/29 13:46:02;;;;;;;4.28;2.22;;;8.90;76.90;;;;;;20755966;28;20094;-46
2024/01/29 13:56:04;;;;;;;3.42;2.20;;;8.30;78.20;;;;;;20761038;28;20067;-45
2024/01/29 14:06:06;;;;;;;3.40;2.20;;;7.70;80.60;;;;;;20760473;28;20033;-44
2024/01/29 14:16:08;;;;;;;5.78;2.83;;;7.30;82.00;;;;;;20746722;28;20052;-46
2024/01/29 14:26:10;;;;;;;5.57;2.85;;;7.10;82.70;;;;;;20751373;28;20037;-46
2024/01/29 14:36:12;;;;;;;8.60;2.75;;;6.80;83.90;;;;;;20747736;28;20037;-44
2024/01/29 14:46:18;;;;;;;5.93;3.15;;;6.30;85.30;;;;;;20743028;28;20029;-43
2024/01/29 14:56:23;;;;;;;5.00;3.22;;;6.10;85.90;;;;;;20748270;28;20150;-44
2024/01/29 15:06:25;;;;;;;7.60;3.72;;;6.10;86.70;;;;;;20748354;28;20045;-46
2024/01/29 15:16:27;;;;;;;6.20;3.95;;;5.80;87.80;;;;;;20751320;28;20053;-45
2024/01/29 15:26:31;;;;;;;4.75;2.80;;;5.20;89.70;;;;;;20751443;28;20037;-45
2024/01/29 15:36:33;;;;;;;3.20;1.90;;;4.50;91.00;;;;;;20751186;28;21155;-43
2024/01/29 15:46:42;;;;;;;2.58;1.17;;;3.70;92.40;;;;;;20751511;28;20037;-45
2024/01/29 15:56:44;;;;;;;5.97;2.80;;;3.10;93.30;;;;;;20749155;28;20033;-43
2024/01/29 16:06:45;;;;;;;3.28;1.77;;;2.70;94.80;;;;;;20747672;28;20041;-43
2024/01/29 16:16:48;;;;;;;3.28;1.83;;;2.40;94.60;;;;;;20747817;28;20048;-44
2024/01/29 16:26:51;;;;;;;2.47;1.30;;;2.00;95.40;;;;;;20728756;28;21198;-44
2024/01/29 16:36:52;;;;;;;3.33;1.00;;;1.70;95.90;;;;;;20730684;28;21049;-44
2024/01/29 16:46:54;;;;;;;1.42;0.80;;;1.30;96.00;;;;;;20748687;28;20040;-43
2024/01/29 16:57:04;;;;;;;2.08;1.30;;;1.40;95.60;;;;;;20746613;28;20053;-43
2024/01/29 17:07:07;;;;;;;1.83;0.90;;;1.40;95.70;;;;;;20749224;28;20083;-45
2024/01/29 17:17:09;;;;;;;2.00;0.80;;;1.30;95.40;;;;;;20754301;28;20097;-44
2024/01/29 17:27:11;;;;;;;5.88;1.20;;;1.40;95.10;;;;;;20763989;28;20048;-45
2024/01/29 17:37:14;;;;;;;2.33;1.00;;;1.30;95.20;;;;;;20760452;28;20095;-45
2024/01/29 17:47:16;;;;;;;2.03;1.02;;;1.20;95.30;;;;;;20765515;28;20398;-45
2024/01/29 17:57:27;;;;;;;1.65;0.90;;;1.10;95.10;;;;;;20745105;28;20029;-45
2024/01/29 18:07:29;;;;;;;;;;;1.00;95.50;;;;;;20763793;28;20037;-45
2024/01/29 18:17:31;;;;;;;2.67;1.30;;;1.00;95.50;;;;;;20762070;28;19924;-45
2024/01/29 18:27:32;;;;;;;2.30;1.00;;;0.80;95.80;;;;;;20760948;28;20041;-43
2024/01/29 18:37:34;;;;;;;2.17;0.82;;;0.70;96.50;;;;;;20763166;28;20045;-44
2024/01/29 18:47:39;;;;;;;2.97;1.00;;;0.40;96.40;;;;;;20760091;28;20048;-44
2024/01/29 18:57:40;;;;;;;2.53;1.08;;;0.60;95.80;;;;;;20760380;28;20037;-46
2024/01/29 19:07:47;;;;;;;1.95;0.85;;;0.50;95.60;;;;;;20740114;28;20090;-43
2024/01/29 19:17:49;;;;;;;0.93;0.63;;;0.50;95.80;;;;;;20755532;28;20048;-46
2024/01/29 19:27:50;;;;;;;2.08;0.90;;;0.40;95.90;;;;;;20756923;28;20037;-44
2024/01/29 19:37:53;;;;;;;1.98;1.00;;;0.60;95.30;;;;;;20755610;28;20041;-44
2024/01/29 19:47:55;;;;;;;3.92;0.90;;;0.50;95.30;;;;;;20737673;28;20045;-44
2024/01/29 19:57:57;;;;;;;3.45;0.52;;;0.50;94.80;;;;;;20756524;28;20110;-44
2024/01/29 20:08:00;;;;;;;1.58;0.60;;;0.70;94.30;;;;;;20734378;28;20037;-44
2024/01/29 20:18:02;;;;;;;1.58;0.80;;;0.70;93.70;;;;;;20752917;28;20057;-43
2024/01/29 20:28:04;;;;;;;1.23;0.70;;;0.80;94.10;;;;;;20754396;28;20664;-42
2024/01/29 20:38:06;;;;;;;1.08;0.60;;;0.70;93.80;;;;;;20752682;28;20094;-44
2024/01/29 20:48:08;;;;;;;1.35;0.50;;;0.70;93.70;;;;;;20751228;28;20094;-45
2024/01/29 20:58:10;;;;;;;1.65;0.80;;;0.70;93.40;;;;;;20750463;28;20041;-44
2024/01/29 21:08:13;;;;;;;2.88;0.98;;;0.70;93.40;;;;;;20746855;28;20037;-43
2024/01/29 21:18:16;;;;;;;1.60;0.77;;;0.60;93.80;;;;;;20748589;28;20127;-43
2024/01/29 21:28:17;;;;;;;1.75;0.93;;;0.40;94.60;;;;;;20732191;28;20040;-45
2024/01/29 21:38:23;;;;;;;2.40;0.70;;;0.30;94.90;;;;;;20749125;28;20044;-44
2024/01/29 21:48:24;;;;;;;2.03;0.90;;;0.10;94.90;;;;;;20748165;28;20041;-43
2024/01/29 21:58:26;;;;;;;1.67;0.88;;;0.10;94.80;;;;;;20747525;28;20171;-44
2024/01/29 22:08:30;;;;;;;1.33;0.77;;;0.00;94.80;;;;;;20760504;28;20032;-43
2024/01/29 22:18:31;;;;;;;1.80;0.80;;;0.00;95.40;;;;;;20761863;28;20669;-43
2024/01/29 22:28:33;;;;;;;1.98;0.93;;;0.20;94.40;;;;;;20761892;28;20045;-44
2024/01/29 22:38:40;;;;;;;1.58;0.80;;;0.50;94.00;;;;;;20762695;28;21072;-42
2024/01/29 22:48:41;;;;;;;1.88;0.80;;;0.40;93.80;;;;;;20760940;28;20044;-45
2024/01/29 22:58:44;;;;;;;1.42;0.70;;;0.30;94.50;;;;;;20759527;28;20036;-44
2024/01/29 23:08:46;;;;;;;2.10;1.00;;;0.20;94.40;;;;;;20758129;28;20099;-45
2024/01/29 23:18:48;;;;;;;2.05;0.95;;;-0.10;95.00;;;;;;20756929;28;20045;-43
2024/01/29 23:28:50;;;;;;;2.42;1.20;;;-0.20;95.40;;;;;;20757350;28;20044;-44
2024/01/29 23:38:51;;;;;;;2.55;1.25;;;0.00;95.90;;;;;;20758820;28;20166;-43
2024/01/29 23:48:53;;;;;;;2.33;1.00;;;0.00;95.70;;;;;;20738517;28;20044;-44
2024/01/29 23:58:55;;;;;;;2.72;0.95;;;0.20;94.80;;;;;;20754856;28;20102;-47
